createdAt,value
2023-05-05T00:00:13.308Z,13.63
2023-05-05T00:05:08.193Z,14.73
2023-05-05T00:07:35.482Z,13.52
2023-05-05T00:10:02.783Z,17.60
2023-05-05T00:12:30.363Z,16.17
2023-05-05T00:14:57.701Z,15.80
2023-05-05T00:17:25.050Z,23.17
2023-05-05T00:19:52.334Z,17.65
2023-05-05T00:22:19.611Z,20.05
2023-05-05T00:24:46.923Z,25.15
2023-05-05T00:27:14.155Z,22.95
2023-05-05T00:29:41.606Z,23.40
2023-05-05T00:32:09.905Z,22.45
2023-05-05T00:34:37.190Z,28.97
2023-05-05T00:37:04.651Z,20.95
2023-05-05T00:39:33.258Z,23.88
2023-05-05T00:42:00.608Z,22.98
2023-05-05T00:44:54.264Z,19.83
2023-05-05T00:47:21.489Z,17.20
2023-05-05T00:49:48.768Z,16.73
2023-05-05T00:52:16.063Z,15.48
2023-05-05T00:54:43.320Z,15.55
2023-05-05T00:57:11.084Z,12.25
2023-05-05T00:59:39.035Z,12.50
2023-05-05T01:02:06.253Z,10.02
2023-05-05T01:04:33.576Z,12.10
2023-05-05T01:07:16.269Z,12.43
2023-05-05T01:10:18.319Z,11.38
2023-05-05T01:12:54.637Z,12.40
2023-05-05T01:15:35.828Z,10.38
2023-05-05T01:18:09.282Z,12.30
2023-05-05T01:20:41.081Z,11.85
2023-05-05T01:23:08.565Z,12.05
2023-05-05T01:25:50.161Z,11.50
2023-05-05T01:28:36.351Z,12.73
2023-05-05T01:31:15.090Z,11.20
2023-05-05T01:33:45.293Z,9.80
2023-05-05T01:36:14.158Z,10.65
2023-05-05T01:38:43.048Z,11.20
2023-05-05T01:41:24.076Z,10.52
2023-05-05T01:43:52.436Z,11.48
2023-05-05T01:46:22.763Z,8.88
2023-05-05T01:48:51.118Z,12.70
2023-05-05T01:51:19.917Z,11.33
2023-05-05T01:53:47.280Z,9.98
2023-05-05T01:56:15.476Z,13.30
2023-05-05T01:58:45.441Z,9.38
2023-05-05T02:01:13.556Z,7.35
2023-05-05T02:03:41.486Z,11.32
2023-05-05T02:06:09.748Z,9.63
2023-05-05T02:08:37.678Z,10.50
2023-05-05T02:11:05.255Z,9.82
2023-05-05T02:13:33.126Z,7.20
2023-05-05T02:16:01.040Z,7.40
2023-05-05T02:18:28.615Z,9.32
2023-05-05T02:20:56.009Z,8.00
2023-05-05T02:23:23.274Z,8.27
2023-05-05T02:25:51.089Z,7.18
2023-05-05T02:28:23.157Z,6.55
2023-05-05T02:30:57.395Z,11.85
2023-05-05T02:33:26.478Z,9.95
2023-05-05T02:35:55.046Z,6.60
2023-05-05T02:38:28.715Z,7.13
2023-05-05T02:41:02.301Z,6.15
2023-05-05T02:43:30.534Z,6.53
2023-05-05T02:45:57.929Z,6.17
2023-05-05T02:48:25.354Z,4.28
2023-05-05T02:50:53.838Z,5.25
2023-05-05T02:53:29.978Z,8.10
2023-05-05T02:56:15.924Z,10.27
2023-05-05T02:58:57.820Z,7.20
2023-05-05T03:01:29.030Z,5.97
2023-05-05T03:04:05.858Z,7.15
2023-05-05T03:06:43.442Z,5.50
2023-05-05T03:09:16.542Z,4.80
2023-05-05T03:12:03.940Z,4.13
2023-05-05T03:14:41.531Z,7.75
2023-05-05T03:17:12.443Z,7.13
2023-05-05T03:19:44.894Z,5.13
2023-05-05T03:22:12.194Z,10.30
2023-05-05T03:24:44.075Z,9.60
2023-05-05T03:27:11.838Z,7.63
2023-05-05T03:29:40.339Z,8.43
2023-05-05T03:32:12.442Z,8.52
2023-05-05T03:34:41.234Z,7.47
2023-05-05T03:37:08.474Z,8.90
2023-05-05T03:39:37.109Z,8.13
2023-05-05T03:42:05.187Z,6.88
2023-05-05T03:44:35.130Z,8.38
2023-05-05T03:47:02.519Z,7.50
2023-05-05T03:49:32.523Z,11.80
2023-05-05T03:51:59.828Z,8.27
2023-05-05T03:54:27.862Z,9.52
2023-05-05T03:56:56.065Z,7.50
2023-05-05T03:59:23.385Z,8.15
2023-05-05T04:01:51.172Z,8.90
2023-05-05T04:04:18.657Z,8.82
2023-05-05T04:06:46.032Z,10.38
2023-05-05T04:09:14.561Z,9.55
2023-05-05T04:11:43.112Z,10.70
2023-05-05T04:14:10.849Z,10.60
2023-05-05T04:16:38.278Z,10.15
2023-05-05T04:19:05.586Z,10.38
2023-05-05T04:21:33.487Z,15.63
2023-05-05T04:24:01.419Z,13.43
2023-05-05T04:26:29.162Z,13.95
2023-05-05T04:28:56.527Z,12.25
2023-05-05T04:31:24.078Z,12.60
2023-05-05T04:33:51.961Z,14.02
2023-05-05T04:36:19.380Z,15.77
2023-05-05T04:38:47.623Z,11.48
2023-05-05T04:41:14.903Z,16.35
2023-05-05T04:43:43.899Z,17.67
2023-05-05T04:46:11.341Z,18.75
2023-05-05T04:48:38.987Z,18.88
2023-05-05T04:51:07.810Z,21.83
2023-05-05T04:53:36.307Z,24.08
2023-05-05T04:56:03.595Z,27.45
2023-05-05T04:58:31.158Z,23.65
2023-05-05T05:00:58.593Z,25.67
2023-05-05T05:03:26.072Z,31.52
2023-05-05T05:05:53.970Z,33.00
2023-05-05T05:08:21.508Z,33.05
2023-05-05T05:10:48.805Z,43.90
2023-05-05T05:13:16.144Z,40.85
2023-05-05T05:15:43.532Z,40.95
2023-05-05T05:18:11.109Z,39.72
2023-05-05T05:20:39.580Z,41.20
2023-05-05T05:23:06.925Z,44.83
2023-05-05T05:25:38.436Z,40.55
2023-05-05T05:28:09.365Z,44.45
2023-05-05T05:30:42.397Z,40.40
2023-05-05T05:33:11.040Z,44.95
2023-05-05T05:35:39.562Z,45.45
2023-05-05T05:38:07.115Z,43.08
2023-05-05T05:40:34.606Z,48.42
2023-05-05T05:43:02.989Z,42.95
2023-05-05T05:45:30.991Z,44.00
2023-05-05T05:47:58.541Z,48.22
2023-05-05T05:50:28.542Z,43.60
2023-05-05T05:52:57.588Z,42.65
2023-05-05T05:55:25.609Z,46.33
2023-05-05T05:57:54.210Z,47.28
2023-05-05T06:00:21.587Z,48.70
2023-05-05T06:02:55.932Z,48.63
2023-05-05T06:05:26.909Z,44.85
2023-05-05T06:07:54.801Z,43.65
2023-05-05T06:10:27.467Z,43.72
2023-05-05T06:13:00.783Z,46.00
2023-05-05T06:15:28.318Z,41.25
2023-05-05T06:17:56.398Z,50.42
2023-05-05T06:20:23.914Z,43.35
2023-05-05T06:22:51.270Z,41.25
2023-05-05T06:25:19.009Z,37.38
2023-05-05T06:27:46.491Z,39.53
2023-05-05T06:30:14.856Z,33.22
2023-05-05T06:32:42.265Z,34.08
2023-05-05T06:35:09.900Z,34.72
2023-05-05T06:37:37.143Z,30.63
2023-05-05T06:40:04.541Z,31.40
2023-05-05T06:42:32.216Z,28.95
2023-05-05T06:45:00.808Z,26.45
2023-05-05T06:47:28.048Z,25.10
2023-05-05T06:49:55.267Z,21.17
2023-05-05T06:52:23.364Z,22.63
2023-05-05T06:54:50.654Z,27.92
2023-05-05T06:57:18.019Z,19.70
2023-05-05T06:59:45.408Z,20.83
2023-05-05T07:02:12.608Z,22.45
2023-05-05T07:04:41.492Z,17.40
2023-05-05T07:07:08.717Z,19.65
2023-05-05T07:09:35.978Z,21.23
2023-05-05T07:12:03.650Z,18.10
2023-05-05T07:14:31.023Z,17.98
2023-05-05T07:16:58.444Z,16.88
2023-05-05T07:19:25.894Z,18.50
2023-05-05T07:21:53.200Z,16.92
2023-05-05T07:24:20.400Z,15.85
2023-05-05T07:26:47.698Z,14.73
2023-05-05T07:29:14.975Z,14.35
2023-05-05T07:31:42.358Z,16.90
2023-05-05T07:34:09.657Z,13.35
2023-05-05T07:36:36.890Z,13.77
2023-05-05T07:39:04.313Z,15.52
2023-05-05T07:41:31.581Z,14.23
2023-05-05T07:43:59.888Z,14.10
2023-05-05T07:46:27.211Z,12.80
2023-05-05T07:48:54.461Z,12.73
2023-05-05T07:51:22.001Z,15.73
2023-05-05T07:53:49.312Z,11.02
2023-05-05T07:56:16.670Z,10.98
2023-05-05T07:58:43.973Z,10.23
2023-05-05T08:01:12.700Z,13.65
2023-05-05T08:03:40.239Z,11.85
2023-05-05T08:06:09.484Z,11.65
2023-05-05T08:08:37.096Z,11.07
2023-05-05T08:11:06.405Z,11.75
2023-05-05T08:13:33.814Z,12.55
2023-05-05T08:16:01.317Z,11.95
2023-05-05T08:18:28.563Z,15.45
2023-05-05T08:20:55.964Z,15.02
2023-05-05T08:23:23.362Z,12.40
2023-05-05T08:25:50.665Z,11.00
2023-05-05T08:28:18.412Z,9.00
2023-05-05T08:30:45.673Z,12.15
2023-05-05T08:33:12.967Z,10.63
2023-05-05T08:35:40.402Z,10.32
2023-05-05T08:38:07.665Z,9.52
2023-05-05T08:40:35.236Z,7.93
2023-05-05T08:43:02.714Z,11.40
2023-05-05T08:45:30.379Z,11.00
2023-05-05T08:47:58.324Z,9.45
2023-05-05T08:50:27.565Z,8.52
2023-05-05T08:52:59.213Z,6.20
2023-05-05T08:55:29.010Z,12.02
2023-05-05T08:57:58.019Z,7.60
2023-05-05T09:00:27.183Z,5.95
2023-05-05T09:02:57.090Z,4.40
2023-05-05T09:05:24.980Z,4.18
2023-05-05T09:07:52.341Z,8.18
2023-05-05T09:10:20.557Z,5.88
2023-05-05T09:12:50.375Z,5.27
2023-05-05T09:15:17.691Z,6.13
2023-05-05T09:17:45.492Z,5.53
2023-05-05T09:20:13.975Z,9.50
2023-05-05T09:22:45.069Z,8.32
2023-05-05T09:25:13.127Z,7.70
2023-05-05T09:27:41.900Z,6.87
2023-05-05T09:30:09.940Z,6.13
2023-05-05T09:32:53.450Z,6.22
2023-05-05T09:35:21.571Z,6.40
2023-05-05T09:37:48.896Z,9.07
2023-05-05T09:40:17.615Z,8.18
2023-05-05T09:42:45.300Z,9.20
2023-05-05T09:45:18.738Z,6.88
2023-05-05T09:47:46.934Z,10.13
2023-05-05T09:50:21.152Z,7.18
2023-05-05T09:52:56.069Z,9.65
2023-05-05T09:55:24.050Z,8.43
2023-05-05T09:57:51.317Z,8.73
2023-05-05T10:00:18.743Z,8.10
2023-05-05T10:02:46.098Z,7.30
2023-05-05T10:05:14.373Z,9.55
2023-05-05T10:07:42.818Z,6.75
2023-05-05T10:10:11.655Z,8.77
2023-05-05T10:15:07.367Z,7.05
2023-05-05T10:18:02.365Z,3.80
2023-05-05T10:20:33.878Z,5.47
2023-05-05T10:23:03.037Z,3.83
2023-05-05T10:25:33.982Z,5.60
2023-05-05T10:28:01.857Z,4.93
2023-05-05T10:30:33.269Z,4.15
2023-05-05T10:33:31.708Z,7.93
2023-05-05T10:36:02.256Z,4.38
2023-05-05T10:38:33.424Z,6.20
2023-05-05T10:41:02.175Z,4.93
2023-05-05T10:43:30.741Z,5.63
2023-05-05T10:45:58.640Z,4.93
2023-05-05T10:48:30.708Z,3.65
2023-05-05T10:51:02.807Z,5.07
2023-05-05T10:53:31.575Z,3.13
2023-05-05T10:56:04.743Z,3.33
2023-05-05T10:58:47.017Z,3.97
2023-05-05T11:01:31.971Z,4.65
2023-05-05T11:04:25.930Z,3.83
2023-05-05T11:07:23.493Z,4.40
2023-05-05T11:09:56.900Z,4.47
2023-05-05T11:12:24.256Z,5.63
2023-05-05T11:15:10.044Z,4.68
2023-05-05T11:17:45.583Z,6.22
2023-05-05T11:20:12.967Z,7.85
2023-05-05T11:22:59.045Z,7.47
2023-05-05T11:25:40.544Z,7.40
2023-05-05T11:28:08.309Z,4.20
2023-05-05T11:30:36.708Z,8.00
2023-05-05T11:33:22.789Z,5.07
2023-05-05T11:35:59.001Z,6.00
2023-05-05T11:38:44.865Z,8.20
2023-05-05T11:41:14.067Z,7.65
2023-05-05T11:43:41.846Z,10.18
2023-05-05T11:46:13.082Z,11.52
2023-05-05T11:48:51.678Z,7.28
2023-05-05T11:51:19.140Z,7.10
2023-05-05T11:53:47.495Z,10.00
2023-05-05T11:56:24.894Z,10.02
2023-05-05T11:59:09.747Z,8.40
2023-05-05T12:01:41.680Z,7.82
2023-05-05T12:04:12.610Z,9.68
2023-05-05T12:06:40.155Z,11.98
2023-05-05T12:09:08.449Z,13.30
2023-05-05T12:11:35.760Z,10.37
2023-05-05T12:14:12.455Z,10.48
2023-05-05T12:16:40.108Z,12.55
2023-05-05T12:19:08.433Z,12.63
2023-05-05T12:21:36.235Z,12.03
2023-05-05T12:24:03.664Z,12.63
2023-05-05T12:26:31.930Z,14.05
2023-05-05T12:28:59.924Z,11.90
2023-05-05T12:31:37.045Z,14.73
2023-05-05T12:34:08.561Z,15.35
2023-05-05T12:36:39.036Z,12.70
2023-05-05T12:39:06.585Z,16.65
2023-05-05T12:41:34.276Z,16.02
2023-05-05T12:44:05.214Z,20.48
2023-05-05T12:46:45.455Z,20.00
2023-05-05T12:49:12.778Z,17.05
2023-05-05T12:51:53.025Z,14.65
2023-05-05T12:54:20.304Z,17.35
2023-05-05T12:56:48.355Z,14.45
2023-05-05T12:59:21.687Z,17.15
2023-05-05T13:01:53.605Z,12.70
2023-05-05T13:04:21.976Z,14.02
2023-05-05T13:06:49.841Z,16.43
2023-05-05T13:09:27.141Z,11.65
2023-05-05T13:11:54.974Z,13.02
2023-05-05T13:14:22.485Z,13.20
2023-05-05T13:16:49.865Z,12.70
2023-05-05T13:19:17.228Z,12.48
2023-05-05T13:21:44.513Z,15.93
2023-05-05T13:24:21.383Z,14.73
2023-05-05T13:26:56.518Z,11.63
2023-05-05T13:29:27.270Z,15.88
2023-05-05T13:31:57.004Z,14.52
2023-05-05T13:34:24.266Z,18.35
2023-05-05T13:36:51.940Z,15.60
2023-05-05T13:39:19.238Z,13.32
2023-05-05T13:41:46.613Z,9.68
2023-05-05T13:44:14.432Z,12.68
2023-05-05T13:46:42.967Z,9.20
2023-05-05T13:49:10.372Z,13.30
2023-05-05T13:51:39.016Z,8.00
2023-05-05T13:54:06.784Z,5.63
2023-05-05T13:56:34.721Z,8.38
2023-05-05T13:59:02.449Z,7.75
2023-05-05T14:01:30.549Z,6.10
2023-05-05T14:03:58.404Z,7.55
2023-05-05T14:06:26.378Z,8.10
2023-05-05T14:08:53.845Z,10.85
2023-05-05T14:11:21.386Z,7.68
2023-05-05T14:13:49.069Z,12.52
2023-05-05T14:16:16.515Z,7.80
2023-05-05T14:18:43.792Z,8.35
2023-05-05T14:21:11.263Z,9.38
2023-05-05T14:23:38.646Z,7.95
2023-05-05T14:26:05.870Z,5.70
2023-05-05T14:28:33.235Z,5.25
2023-05-05T14:31:00.674Z,8.63
2023-05-05T14:33:28.017Z,7.05
2023-05-05T14:35:56.065Z,6.28
2023-05-05T14:38:23.337Z,6.63
2023-05-05T14:40:50.780Z,7.45
2023-05-05T14:43:18.038Z,9.68
2023-05-05T14:45:45.349Z,8.52
2023-05-05T14:48:12.635Z,7.40
2023-05-05T14:50:42.252Z,7.03
2023-05-05T14:53:09.572Z,6.95
2023-05-05T14:55:37.149Z,7.05
2023-05-05T14:58:04.339Z,5.03
2023-05-05T15:00:31.581Z,5.28
2023-05-05T15:02:58.953Z,5.30
2023-05-05T15:05:26.357Z,5.82
2023-05-05T15:07:53.607Z,5.47
2023-05-05T15:10:22.111Z,6.82
2023-05-05T15:12:51.023Z,8.90
2023-05-05T15:15:18.570Z,6.45
2023-05-05T15:17:45.909Z,6.60
2023-05-05T15:20:13.220Z,7.18
2023-05-05T15:22:40.624Z,5.93
2023-05-05T15:25:12.151Z,7.57
2023-05-05T15:27:40.297Z,10.70
2023-05-05T15:30:07.807Z,6.82
2023-05-05T15:32:35.194Z,6.95
2023-05-05T15:35:02.503Z,5.63
2023-05-05T15:37:29.785Z,7.18
2023-05-05T15:39:57.183Z,8.85
2023-05-05T15:42:24.814Z,5.20
2023-05-05T15:44:52.200Z,7.57
2023-05-05T15:47:19.422Z,6.82
2023-05-05T15:49:46.714Z,7.55
2023-05-05T15:52:14.001Z,7.35
2023-05-05T15:54:41.509Z,7.00
2023-05-05T15:57:08.746Z,7.03
2023-05-05T15:59:36.204Z,9.30
2023-05-05T16:02:03.541Z,9.82
2023-05-05T16:04:30.905Z,8.60
2023-05-05T16:06:58.236Z,7.60
2023-05-05T16:09:25.505Z,10.90
2023-05-05T16:11:54.528Z,8.70
2023-05-05T16:14:21.851Z,8.05
2023-05-05T16:16:49.346Z,9.32
2023-05-05T16:19:18.098Z,8.30
2023-05-05T16:21:45.600Z,12.07
2023-05-05T16:24:16.376Z,12.68
2023-05-05T16:26:43.941Z,13.57
2023-05-05T16:29:11.286Z,12.82
2023-05-05T16:31:38.873Z,11.38
2023-05-05T16:34:06.340Z,11.40
2023-05-05T16:36:33.617Z,11.60
2023-05-05T16:39:00.912Z,14.40
2023-05-05T16:41:28.266Z,13.90
2023-05-05T16:43:55.596Z,14.05
2023-05-05T16:46:22.929Z,13.80
2023-05-05T16:48:50.641Z,15.70
2023-05-05T16:51:17.909Z,15.05
2023-05-05T16:53:46.594Z,14.20
2023-05-05T16:56:14.888Z,13.48
2023-05-05T16:58:42.145Z,13.82
2023-05-05T17:01:09.603Z,14.68
2023-05-05T17:03:38.253Z,14.45
2023-05-05T17:06:06.144Z,13.85
2023-05-05T17:08:33.370Z,15.35
2023-05-05T17:11:00.649Z,16.52
2023-05-05T17:13:27.890Z,14.52
2023-05-05T17:15:55.478Z,16.42
2023-05-05T17:18:25.691Z,12.52
2023-05-05T17:20:53.134Z,17.13
2023-05-05T17:23:21.281Z,14.38
2023-05-05T17:25:48.625Z,15.23
2023-05-05T17:28:17.267Z,14.98
2023-05-05T17:30:44.598Z,19.40
2023-05-05T17:33:11.786Z,15.10
2023-05-05T17:35:39.146Z,14.43
2023-05-05T17:38:06.470Z,14.93
2023-05-05T17:40:34.714Z,15.77
2023-05-05T17:43:01.980Z,19.70
2023-05-05T17:45:29.287Z,16.38
2023-05-05T17:47:56.682Z,18.42
2023-05-05T17:50:24.417Z,19.67
2023-05-05T17:52:51.715Z,16.58
2023-05-05T17:55:18.972Z,17.42
2023-05-05T17:57:47.380Z,17.33
2023-05-05T18:00:14.814Z,19.00
2023-05-05T18:02:42.648Z,16.40
2023-05-05T18:05:10.787Z,20.63
2023-05-05T18:07:38.772Z,15.27
2023-05-05T18:10:10.581Z,17.33
2023-05-05T18:12:37.949Z,17.95
2023-05-05T18:15:05.729Z,15.48
2023-05-05T18:17:33.070Z,18.10
2023-05-05T18:20:00.310Z,17.92
2023-05-05T18:22:27.619Z,17.38
2023-05-05T18:24:59.665Z,21.20
2023-05-05T18:27:27.350Z,15.68
2023-05-05T18:29:54.980Z,17.27
2023-05-05T18:32:22.225Z,17.65
2023-05-05T18:34:49.522Z,18.17
2023-05-05T18:37:16.939Z,16.45
2023-05-05T18:39:45.072Z,16.65
2023-05-05T18:42:13.111Z,18.17
2023-05-05T18:44:40.432Z,14.60
2023-05-05T18:47:08.154Z,13.65
2023-05-05T18:49:35.534Z,17.50
2023-05-05T18:52:02.997Z,18.20
2023-05-05T18:54:30.369Z,14.90
2023-05-05T18:56:57.780Z,15.15
2023-05-05T18:59:25.015Z,19.20
2023-05-05T19:01:52.329Z,15.88
2023-05-05T19:04:30.633Z,15.73
2023-05-05T19:06:58.962Z,17.00
2023-05-05T19:09:26.321Z,18.33
2023-05-05T19:11:53.654Z,18.48
2023-05-05T19:14:20.976Z,21.48
2023-05-05T19:16:48.286Z,22.58
2023-05-05T19:19:15.568Z,16.65
2023-05-05T19:21:42.792Z,19.83
2023-05-05T19:24:10.296Z,17.70
2023-05-05T19:26:37.678Z,18.77
2023-05-05T19:29:05.023Z,18.13
2023-05-05T19:31:32.533Z,15.38
2023-05-05T19:34:00.964Z,16.02
2023-05-05T19:36:28.441Z,28.95
2023-05-05T19:39:01.721Z,18.75
2023-05-05T19:41:29.647Z,21.73
2023-05-05T19:43:57.019Z,18.25
2023-05-05T19:46:28.028Z,18.23
2023-05-05T19:48:55.742Z,18.48
2023-05-05T19:51:23.102Z,18.05
2023-05-05T19:53:50.718Z,16.38
2023-05-05T19:56:18.046Z,15.65
2023-05-05T19:58:59.012Z,14.52
2023-05-05T20:01:26.990Z,17.00
2023-05-05T20:03:54.946Z,14.80
2023-05-05T20:06:22.967Z,14.02
2023-05-05T20:08:50.454Z,14.15
2023-05-05T20:11:17.790Z,15.50
2023-05-05T20:13:45.132Z,13.60
2023-05-05T20:16:12.382Z,15.80
2023-05-05T20:18:40.205Z,14.82
2023-05-05T20:21:07.453Z,15.50
2023-05-05T20:23:34.857Z,16.20
2023-05-05T20:26:02.510Z,17.65
2023-05-05T20:28:31.526Z,16.00
2023-05-05T20:31:00.519Z,17.00
2023-05-05T20:35:57.542Z,12.15
2023-05-05T20:38:24.815Z,13.85
2023-05-05T20:40:52.473Z,13.38
2023-05-05T20:43:21.065Z,16.30
2023-05-05T20:45:48.374Z,13.95
2023-05-05T20:48:15.706Z,14.68
2023-05-05T20:50:43.021Z,16.05
2023-05-05T20:53:11.016Z,14.70
2023-05-05T20:55:38.408Z,15.95
2023-05-05T20:58:07.400Z,15.77
2023-05-05T21:00:34.826Z,13.35
2023-05-05T21:03:02.951Z,13.55
2023-05-05T21:05:31.519Z,14.93
2023-05-05T21:08:00.865Z,12.57
2023-05-05T21:10:29.057Z,14.35
2023-05-05T21:12:56.472Z,12.55
2023-05-05T21:15:23.819Z,14.23
2023-05-05T21:17:51.274Z,14.60
2023-05-05T21:20:18.710Z,14.93
2023-05-05T21:22:46.183Z,17.58
2023-05-05T21:25:20.482Z,15.10
2023-05-05T21:27:48.235Z,14.70
2023-05-05T21:30:15.901Z,15.13
2023-05-05T21:32:43.790Z,14.27
2023-05-05T21:35:11.221Z,15.20
2023-05-05T21:37:41.475Z,14.27
2023-05-05T21:40:13.922Z,15.90
2023-05-05T21:42:42.285Z,15.40
2023-05-05T21:45:10.978Z,16.02
2023-05-05T21:47:38.244Z,14.43
2023-05-05T21:50:05.872Z,17.67
2023-05-05T21:52:33.588Z,16.17
2023-05-05T21:55:00.908Z,15.52
2023-05-05T21:57:28.201Z,14.82
2023-05-05T21:59:55.629Z,15.85
2023-05-05T22:02:24.530Z,17.73
2023-05-05T22:04:52.205Z,16.33
2023-05-05T22:07:19.673Z,16.30
2023-05-05T22:09:46.941Z,16.73
2023-05-05T22:12:14.237Z,15.68
2023-05-05T22:14:41.532Z,15.48
2023-05-05T22:17:08.792Z,19.30
2023-05-05T22:19:36.362Z,20.15
2023-05-05T22:22:03.924Z,16.92
2023-05-05T22:24:31.283Z,17.15
2023-05-05T22:26:58.636Z,16.75
2023-05-05T22:29:26.011Z,18.70
2023-05-05T22:31:53.448Z,17.67
2023-05-05T22:34:21.954Z,18.33
2023-05-05T22:36:49.421Z,16.65
2023-05-05T22:39:18.497Z,16.30
2023-05-05T22:44:13.080Z,17.42
2023-05-05T22:46:40.898Z,22.30
2023-05-05T22:49:08.883Z,23.20
2023-05-05T22:51:36.272Z,22.17
2023-05-05T22:54:03.505Z,18.85
2023-05-05T22:56:30.828Z,20.23
2023-05-05T22:58:58.146Z,20.35
2023-05-05T23:01:25.941Z,21.30
2023-05-05T23:03:53.283Z,20.00
2023-05-05T23:06:20.577Z,21.10
2023-05-05T23:08:48.922Z,21.92
2023-05-05T23:11:16.253Z,22.67
2023-05-05T23:13:43.548Z,22.17
2023-05-05T23:16:11.450Z,24.17
2023-05-05T23:18:44.188Z,24.60
2023-05-05T23:21:14.607Z,24.85
2023-05-05T23:23:41.866Z,23.35
2023-05-05T23:26:09.526Z,23.50
2023-05-05T23:28:36.774Z,24.23
2023-05-05T23:31:04.114Z,24.83
2023-05-05T23:33:31.470Z,25.83
2023-05-05T23:35:58.699Z,23.73
2023-05-05T23:38:25.996Z,24.25
2023-05-05T23:40:53.632Z,26.17
2023-05-05T23:43:20.975Z,25.83
2023-05-05T23:45:48.309Z,24.73
2023-05-05T23:48:15.635Z,24.27
2023-05-05T23:50:43.064Z,27.90
2023-05-05T23:53:10.602Z,25.63
2023-05-05T23:55:37.935Z,26.08
2023-05-05T23:58:05.271Z,26.70
